createdAt,value
2019-03-18T00:00:31.436Z,1003.67
2019-03-18T00:01:31.505Z,1003.71
2019-03-18T00:02:31.375Z,1003.59
2019-03-18T00:03:31.362Z,1003.68
2019-03-18T00:04:31.382Z,1003.69
2019-03-18T00:05:31.337Z,1003.66
2019-03-18T00:06:31.312Z,1003.69
2019-03-18T00:07:31.384Z,1003.70
2019-03-18T00:08:31.313Z,1003.72
2019-03-18T00:09:31.327Z,1003.67
2019-03-18T00:10:31.382Z,1003.76
2019-03-18T00:11:31.254Z,1003.76
2019-03-18T00:12:31.251Z,1003.79
2019-03-18T00:13:31.271Z,1003.80
2019-03-18T00:14:31.230Z,1003.77
2019-03-18T00:15:31.204Z,1003.80
2019-03-18T00:16:31.196Z,1003.74
2019-03-18T00:17:31.301Z,1003.76
2019-03-18T00:18:31.198Z,1003.76
2019-03-18T00:19:31.179Z,1003.77
2019-03-18T00:20:31.160Z,1003.80
2019-03-18T00:21:31.177Z,1003.75
2019-03-18T00:22:31.141Z,1003.83
2019-03-18T00:23:31.229Z,1003.70
2019-03-18T00:24:31.108Z,1003.78
2019-03-18T00:25:31.099Z,1003.73
2019-03-18T00:26:31.106Z,1003.72
2019-03-18T00:27:31.071Z,1003.69
2019-03-18T00:28:31.061Z,1003.71
2019-03-18T00:29:31.068Z,1003.64
2019-03-18T00:30:31.058Z,1003.61
2019-03-18T00:31:31.047Z,1003.58
2019-03-18T00:32:31.054Z,1003.69
2019-03-18T00:33:31.049Z,1003.63
2019-03-18T00:34:31.023Z,1003.68
2019-03-18T00:35:30.981Z,1003.66
2019-03-18T00:36:30.975Z,1003.72
2019-03-18T00:37:30.974Z,1003.75
2019-03-18T00:38:30.944Z,1003.70
2019-03-18T00:39:30.953Z,1003.70
2019-03-18T00:40:30.932Z,1003.65
2019-03-18T00:41:30.935Z,1003.68
2019-03-18T00:42:30.913Z,1003.74
2019-03-18T00:43:30.916Z,1003.74
2019-03-18T00:44:30.892Z,1003.81
2019-03-18T00:45:30.896Z,1003.77
2019-03-18T00:46:30.866Z,1003.72
2019-03-18T00:47:30.860Z,1003.76
2019-03-18T00:48:30.875Z,1003.76
2019-03-18T00:49:30.852Z,1003.76
2019-03-18T00:50:30.812Z,1003.77
2019-03-18T00:51:30.806Z,1003.86
2019-03-18T00:52:30.793Z,1003.89
2019-03-18T00:53:30.808Z,1003.93
2019-03-18T00:54:30.777Z,1003.92
2019-03-18T00:55:30.794Z,1003.91
2019-03-18T00:56:30.747Z,1003.87
2019-03-18T00:57:30.752Z,1003.87
2019-03-18T00:58:30.729Z,1003.93
2019-03-18T00:59:30.744Z,1003.95
2019-03-18T01:00:30.728Z,1004.10
2019-03-18T01:01:30.689Z,1004.01
2019-03-18T01:02:30.680Z,1004.06
2019-03-18T01:03:30.674Z,1004.00
2019-03-18T01:04:30.703Z,1004.09
2019-03-18T01:05:30.662Z,1004.03
2019-03-18T01:06:30.631Z,1004.16
2019-03-18T01:07:30.628Z,1004.09
2019-03-18T01:08:30.611Z,1004.07
2019-03-18T01:09:30.793Z,1004.16
2019-03-18T01:10:30.620Z,1004.07
2019-03-18T01:11:30.638Z,1004.10
2019-03-18T01:12:30.571Z,1004.17
2019-03-18T01:13:30.559Z,1004.16
2019-03-18T01:14:39.232Z,1004.15
2019-03-18T01:15:38.253Z,1004.17
2019-03-18T01:16:30.537Z,1004.06
2019-03-18T01:17:30.525Z,1004.19
2019-03-18T01:18:30.540Z,1004.10
2019-03-18T01:19:30.499Z,1004.09
2019-03-18T01:20:30.535Z,1004.20
2019-03-18T01:21:30.491Z,1004.14
2019-03-18T01:22:30.507Z,1004.22
2019-03-18T01:23:30.472Z,1004.23
2019-03-18T01:24:30.442Z,1004.16
2019-03-18T01:25:30.420Z,1004.23
2019-03-18T01:26:30.437Z,1004.16
2019-03-18T01:27:30.430Z,1004.24
2019-03-18T01:28:30.395Z,1004.27
2019-03-18T01:29:30.417Z,1004.28
2019-03-18T01:30:30.374Z,1004.25
2019-03-18T01:31:30.369Z,1004.28
2019-03-18T01:32:30.347Z,1004.27
2019-03-18T01:33:30.343Z,1004.24
2019-03-18T01:34:30.344Z,1004.22
2019-03-18T01:35:30.354Z,1004.26
2019-03-18T01:36:30.306Z,1004.23
2019-03-18T01:37:30.286Z,1004.24
2019-03-18T01:38:30.282Z,1004.22
2019-03-18T01:39:30.284Z,1004.19
2019-03-18T01:40:30.248Z,1004.24
2019-03-18T01:41:30.239Z,1004.25
2019-03-18T01:42:30.255Z,1004.26
2019-03-18T01:43:30.223Z,1004.18
2019-03-18T01:44:30.348Z,1004.24
2019-03-18T01:45:40.119Z,1004.17
2019-03-18T01:46:31.183Z,1004.19
2019-03-18T01:47:30.170Z,1004.18
2019-03-18T01:48:30.747Z,1004.20
2019-03-18T01:49:30.147Z,1004.14
2019-03-18T01:50:30.170Z,1004.21
2019-03-18T01:51:30.159Z,1004.15
2019-03-18T01:52:30.119Z,1004.02
2019-03-18T01:53:37.675Z,1004.02
2019-03-18T01:56:55.899Z,1004.02
2019-03-18T01:59:05.243Z,1004.06
2019-03-18T02:00:05.249Z,1004.00
2019-03-18T02:01:12.758Z,1004.04
2019-03-18T02:02:05.246Z,1004.01
2019-03-18T02:03:05.254Z,1004.00
2019-03-18T02:04:05.178Z,1004.05
2019-03-18T02:05:05.219Z,1004.08
2019-03-18T02:06:05.162Z,1003.98
2019-03-18T02:07:05.182Z,1004.10
2019-03-18T02:08:05.151Z,1004.05
2019-03-18T02:09:05.121Z,1004.05
2019-03-18T02:10:05.139Z,1004.07
2019-03-18T02:11:05.112Z,1004.02
2019-03-18T02:12:05.117Z,1004.04
2019-03-18T02:13:05.080Z,1004.12
2019-03-18T02:14:05.070Z,1004.10
2019-03-18T02:15:05.065Z,1004.05
2019-03-18T02:16:05.089Z,1004.01
2019-03-18T02:17:05.042Z,1004.08
2019-03-18T02:18:05.051Z,1004.09
2019-03-18T02:19:05.060Z,1004.04
2019-03-18T02:20:05.071Z,1004.05
2019-03-18T02:21:04.998Z,1004.08
2019-03-18T02:22:04.987Z,1004.10
2019-03-18T02:23:04.972Z,1004.07
2019-03-18T02:24:04.962Z,1003.97
2019-03-18T02:25:04.943Z,1004.09
2019-03-18T02:26:04.942Z,1004.06
2019-03-18T02:27:04.941Z,1004.03
2019-03-18T02:28:04.931Z,1004.10
2019-03-18T02:29:04.921Z,1004.06
2019-03-18T02:30:04.886Z,1004.14
2019-03-18T02:31:13.915Z,1004.10
2019-03-18T02:32:04.872Z,1004.10
2019-03-18T02:33:04.878Z,1004.08
2019-03-18T02:34:04.907Z,1004.10
2019-03-18T02:35:04.869Z,1004.08
2019-03-18T02:36:04.869Z,1004.12
2019-03-18T02:37:04.813Z,1004.09
2019-03-18T02:38:04.806Z,1004.12
2019-03-18T02:39:04.800Z,1004.14
2019-03-18T02:40:04.798Z,1004.13
2019-03-18T02:41:04.814Z,1004.16
2019-03-18T02:42:04.767Z,1004.10
2019-03-18T02:43:04.781Z,1004.13
2019-03-18T02:44:04.740Z,1004.16
2019-03-18T02:45:04.724Z,1004.12
2019-03-18T02:46:10.353Z,1004.11
2019-03-18T02:47:05.732Z,1004.10
2019-03-18T02:48:04.736Z,1004.01
2019-03-18T02:49:04.715Z,1004.08
2019-03-18T02:50:04.667Z,1004.12
2019-03-18T02:51:04.673Z,1004.06
2019-03-18T02:52:04.657Z,1004.13
2019-03-18T02:53:04.646Z,1004.07
2019-03-18T02:54:04.615Z,1004.12
2019-03-18T02:55:04.627Z,1004.12
2019-03-18T02:56:04.611Z,1004.02
2019-03-18T02:57:04.604Z,1004.03
2019-03-18T02:58:04.573Z,1004.12
2019-03-18T02:59:04.563Z,1004.09
2019-03-18T03:00:04.546Z,1004.07
2019-03-18T03:01:04.559Z,1004.06
2019-03-18T03:02:04.545Z,1004.02
2019-03-18T03:03:04.553Z,1004.01
2019-03-18T03:04:04.509Z,1004.04
2019-03-18T03:05:04.496Z,1004.08
2019-03-18T03:06:04.487Z,1004.04
2019-03-18T03:07:04.488Z,1004.08
2019-03-18T03:08:04.516Z,1003.99
2019-03-18T03:09:04.459Z,1004.05
2019-03-18T03:10:04.451Z,1004.00
2019-03-18T03:11:04.455Z,1004.06
2019-03-18T03:12:04.421Z,1004.14
2019-03-18T03:13:04.415Z,1004.09
2019-03-18T03:14:04.431Z,1004.03
2019-03-18T03:15:04.651Z,1004.05
2019-03-18T03:16:04.393Z,1004.01
2019-03-18T03:17:04.387Z,1004.04
2019-03-18T03:18:04.346Z,1004.02
2019-03-18T03:19:04.349Z,1004.09
2019-03-18T03:20:04.374Z,1004.04
2019-03-18T03:21:04.376Z,1004.07
2019-03-18T03:22:04.304Z,1004.12
2019-03-18T03:23:04.290Z,1004.06
2019-03-18T03:24:04.302Z,1004.07
2019-03-18T03:25:04.293Z,1004.11
2019-03-18T03:26:04.296Z,1004.14
2019-03-18T03:27:04.248Z,1004.16
2019-03-18T03:28:04.240Z,1004.20
2019-03-18T03:29:04.224Z,1004.23
2019-03-18T03:30:04.237Z,1004.17
2019-03-18T03:31:04.331Z,1004.14
2019-03-18T03:32:04.188Z,1004.20
2019-03-18T03:33:04.278Z,1004.19
2019-03-18T03:34:04.178Z,1004.25
2019-03-18T03:35:04.173Z,1004.32
2019-03-18T03:36:04.173Z,1004.21
2019-03-18T03:37:04.173Z,1004.24
2019-03-18T03:38:11.373Z,1004.28
2019-03-18T03:39:04.119Z,1004.26
2019-03-18T03:40:04.123Z,1004.17
2019-03-18T03:41:04.115Z,1004.16
2019-03-18T03:42:04.099Z,1004.24
2019-03-18T03:43:04.113Z,1004.23
2019-03-18T03:44:04.059Z,1004.24
2019-03-18T03:45:04.063Z,1004.26
2019-03-18T03:46:04.059Z,1004.23
2019-03-18T03:47:04.032Z,1004.19
2019-03-18T03:48:04.066Z,1004.28
2019-03-18T03:49:03.997Z,1004.30
2019-03-18T03:50:04.001Z,1004.22
2019-03-18T03:51:03.988Z,1004.20
2019-03-18T03:52:04.019Z,1004.29
2019-03-18T03:53:03.969Z,1004.26
2019-03-18T03:54:03.985Z,1004.25
2019-03-18T03:55:03.976Z,1004.25
2019-03-18T03:56:03.984Z,1004.19
2019-03-18T03:57:03.910Z,1004.28
2019-03-18T03:58:03.924Z,1004.23
2019-03-18T03:59:03.910Z,1004.18
2019-03-18T04:00:03.880Z,1004.16
2019-03-18T04:01:03.913Z,1004.22
2019-03-18T04:02:03.902Z,1004.21
2019-03-18T04:03:03.852Z,1004.34
2019-03-18T04:04:03.835Z,1004.31
2019-03-18T04:05:03.841Z,1004.32
2019-03-18T04:06:03.847Z,1004.38
2019-03-18T04:07:03.854Z,1004.26
2019-03-18T04:08:03.811Z,1004.34
2019-03-18T04:09:03.819Z,1004.33
2019-03-18T04:10:03.789Z,1004.43
2019-03-18T04:11:08.000Z,1004.34
2019-03-18T04:12:03.754Z,1004.30
2019-03-18T04:13:03.735Z,1004.37
2019-03-18T04:14:03.720Z,1004.37
2019-03-18T04:15:03.728Z,1004.47
2019-03-18T04:16:03.728Z,1004.39
2019-03-18T04:17:12.279Z,1004.29
2019-03-18T04:18:12.262Z,1004.40
2019-03-18T04:21:25.344Z,1004.42
2019-03-18T04:22:25.308Z,1004.46
2019-03-18T04:23:33.902Z,1004.51
2019-03-18T04:24:25.415Z,1004.40
2019-03-18T04:25:25.331Z,1004.43
2019-03-18T04:26:25.278Z,1004.48
2019-03-18T04:27:25.261Z,1004.53
2019-03-18T04:28:25.238Z,1004.47
2019-03-18T04:29:25.292Z,1004.48
2019-03-18T04:30:25.260Z,1004.37
2019-03-18T04:31:25.321Z,1004.43
2019-03-18T04:32:25.293Z,1004.48
2019-03-18T04:33:25.182Z,1004.54
2019-03-18T04:34:25.201Z,1004.57
2019-03-18T04:35:25.471Z,1004.68
2019-03-18T04:36:25.156Z,1004.60
2019-03-18T04:37:25.156Z,1004.64
2019-03-18T04:38:25.125Z,1004.61
2019-03-18T04:39:25.115Z,1004.69
2019-03-18T04:40:25.117Z,1004.56
2019-03-18T04:41:25.130Z,1004.64
2019-03-18T04:42:25.091Z,1004.64
2019-03-18T04:43:25.103Z,1004.66
2019-03-18T04:44:25.056Z,1004.64
2019-03-18T04:45:25.061Z,1004.77
2019-03-18T04:46:25.035Z,1004.72
2019-03-18T04:47:25.040Z,1004.74
2019-03-18T04:48:25.038Z,1004.72
2019-03-18T04:49:25.048Z,1004.79
2019-03-18T04:50:25.000Z,1004.72
2019-03-18T04:51:25.025Z,1004.68
2019-03-18T04:52:24.985Z,1004.76
2019-03-18T04:53:24.962Z,1004.73
2019-03-18T04:54:24.958Z,1004.79
2019-03-18T04:55:24.972Z,1004.85
2019-03-18T04:56:24.933Z,1004.79
2019-03-18T04:57:24.935Z,1004.79
2019-03-18T04:58:24.949Z,1004.83
2019-03-18T04:59:24.893Z,1004.82
2019-03-18T05:00:24.910Z,1004.82
2019-03-18T05:01:25.130Z,1004.75
2019-03-18T05:02:24.915Z,1004.84
2019-03-18T05:03:24.853Z,1004.76
2019-03-18T05:04:24.844Z,1004.84
2019-03-18T05:05:24.861Z,1004.85
2019-03-18T05:06:24.854Z,1004.86
2019-03-18T05:07:24.823Z,1004.83
2019-03-18T05:08:24.798Z,1004.90
2019-03-18T05:09:24.781Z,1004.79
2019-03-18T05:10:24.790Z,1004.92
2019-03-18T05:11:24.769Z,1004.89
2019-03-18T05:12:24.749Z,1004.86
2019-03-18T05:13:26.568Z,1005.01
2019-03-18T05:14:24.721Z,1004.96
2019-03-18T05:15:24.749Z,1004.93
2019-03-18T05:16:24.710Z,1004.95
2019-03-18T05:17:26.760Z,1004.94
2019-03-18T05:18:24.689Z,1004.91
2019-03-18T05:19:24.722Z,1004.89
2019-03-18T05:20:24.691Z,1004.92
2019-03-18T05:21:24.698Z,1005.01
2019-03-18T05:22:24.663Z,1004.97
2019-03-18T05:23:24.675Z,1005.02
2019-03-18T05:24:24.617Z,1004.98
2019-03-18T05:25:24.637Z,1005.08
2019-03-18T05:26:24.656Z,1005.02
2019-03-18T05:27:24.745Z,1005.11
2019-03-18T05:28:24.575Z,1005.13
2019-03-18T05:29:24.709Z,1005.11
2019-03-18T05:30:24.565Z,1005.15
2019-03-18T05:31:24.731Z,1005.09
2019-03-18T05:32:24.676Z,1005.15
2019-03-18T05:33:24.542Z,1005.20
2019-03-18T05:34:24.523Z,1005.13
2019-03-18T05:35:24.671Z,1005.22
2019-03-18T05:36:24.482Z,1005.17
2019-03-18T05:37:25.417Z,1005.32
2019-03-18T05:38:25.455Z,1005.34
2019-03-18T05:39:24.463Z,1005.22
2019-03-18T05:40:24.505Z,1005.34
2019-03-18T05:41:24.592Z,1005.26
2019-03-18T05:42:24.728Z,1005.29
2019-03-18T05:43:24.427Z,1005.30
2019-03-18T05:44:24.399Z,1005.29
2019-03-18T05:45:24.450Z,1005.24
2019-03-18T05:46:24.438Z,1005.28
2019-03-18T05:47:24.660Z,1005.23
2019-03-18T05:48:24.357Z,1005.39
2019-03-18T05:49:24.421Z,1005.32
2019-03-18T05:50:24.340Z,1005.38
2019-03-18T05:51:25.089Z,1005.35
2019-03-18T05:52:25.909Z,1005.44
2019-03-18T05:53:24.816Z,1005.33
2019-03-18T05:54:24.885Z,1005.42
2019-03-18T05:55:26.002Z,1005.40
2019-03-18T05:56:24.305Z,1005.49
2019-03-18T05:57:26.060Z,1005.50
2019-03-18T05:58:24.239Z,1005.48
2019-03-18T05:59:24.241Z,1005.56
2019-03-18T06:00:24.952Z,1005.45
2019-03-18T06:01:24.247Z,1005.43
2019-03-18T06:02:24.258Z,1005.51
2019-03-18T06:03:24.229Z,1005.45
2019-03-18T06:04:24.176Z,1005.42
2019-03-18T06:05:24.254Z,1005.45
2019-03-18T06:06:24.175Z,1005.54
2019-03-18T06:07:24.193Z,1005.52
2019-03-18T06:08:24.240Z,1005.51
2019-03-18T06:09:24.179Z,1005.50
2019-03-18T06:10:24.417Z,1005.43
2019-03-18T06:11:24.250Z,1005.48
2019-03-18T06:12:24.289Z,1005.43
2019-03-18T06:13:27.049Z,1005.41
2019-03-18T06:14:24.105Z,1005.44
2019-03-18T06:15:24.156Z,1005.37
2019-03-18T06:16:24.206Z,1005.39
2019-03-18T06:17:24.052Z,1005.55
2019-03-18T06:18:24.045Z,1005.40
2019-03-18T06:19:25.287Z,1005.45
2019-03-18T06:20:24.729Z,1005.49
2019-03-18T06:21:24.080Z,1005.42
2019-03-18T06:22:24.203Z,1005.46
2019-03-18T06:23:23.996Z,1005.53
2019-03-18T06:24:23.967Z,1005.52
2019-03-18T06:25:36.095Z,1005.56
2019-03-18T06:26:31.501Z,1005.50
2019-03-18T06:27:23.928Z,1005.56
2019-03-18T06:28:24.514Z,1005.54
2019-03-18T06:29:24.209Z,1005.58
2019-03-18T06:30:23.950Z,1005.61
2019-03-18T06:31:24.021Z,1005.56
2019-03-18T06:32:23.929Z,1005.57
2019-03-18T06:33:23.923Z,1005.59
2019-03-18T06:34:24.589Z,1005.61
2019-03-18T06:35:24.049Z,1005.57
2019-03-18T06:36:26.522Z,1005.63
2019-03-18T06:37:24.268Z,1005.58
2019-03-18T06:38:24.072Z,1005.61
2019-03-18T06:39:23.966Z,1005.69
2019-03-18T06:40:23.936Z,1005.71
2019-03-18T06:41:24.092Z,1005.77
2019-03-18T06:42:24.017Z,1005.77
2019-03-18T06:43:23.883Z,1005.80
2019-03-18T06:44:23.981Z,1005.73
2019-03-18T06:45:24.123Z,1005.74
2019-03-18T06:46:27.474Z,1005.79
2019-03-18T06:47:32.708Z,1005.84
2019-03-18T06:48:23.740Z,1005.83
2019-03-18T06:49:23.765Z,1005.92
2019-03-18T06:50:23.771Z,1005.99
2019-03-18T06:51:23.667Z,1005.93
2019-03-18T06:52:23.676Z,1005.91
2019-03-18T06:53:23.643Z,1005.88
2019-03-18T06:54:23.644Z,1005.86
2019-03-18T06:55:23.606Z,1005.96
2019-03-18T06:56:23.680Z,1006.01
2019-03-18T06:57:23.587Z,1006.02
2019-03-18T06:58:23.600Z,1006.05
2019-03-18T06:59:23.579Z,1006.07
2019-03-18T07:00:23.581Z,1006.06
2019-03-18T07:01:23.538Z,1006.02
2019-03-18T07:02:23.540Z,1006.11
2019-03-18T07:03:23.524Z,1006.09
2019-03-18T07:04:23.587Z,1006.13
2019-03-18T07:05:23.521Z,1006.04
2019-03-18T07:06:23.548Z,1006.07
2019-03-18T07:07:23.556Z,1006.18
2019-03-18T07:08:23.463Z,1006.10
2019-03-18T07:09:23.459Z,1006.08
2019-03-18T07:10:23.478Z,1006.01
2019-03-18T07:11:23.482Z,1006.09
2019-03-18T07:12:23.460Z,1006.09
2019-03-18T07:13:23.479Z,1006.13
2019-03-18T07:14:23.399Z,1006.24
2019-03-18T07:15:23.388Z,1006.14
2019-03-18T07:16:23.427Z,1006.23
2019-03-18T07:17:23.860Z,1006.18
2019-03-18T07:18:23.421Z,1006.18
2019-03-18T07:19:24.059Z,1006.23
2019-03-18T07:20:23.462Z,1006.24
2019-03-18T07:22:39.699Z,1006.24
2019-03-18T07:23:39.614Z,1006.25
2019-03-18T07:24:39.599Z,1006.29
2019-03-18T07:25:39.641Z,1006.33
2019-03-18T07:26:40.037Z,1006.38
2019-03-18T07:27:39.585Z,1006.41
2019-03-18T07:28:39.554Z,1006.35
2019-03-18T07:29:39.544Z,1006.42
2019-03-18T07:30:39.611Z,1006.37
2019-03-18T07:31:39.540Z,1006.38
2019-03-18T07:32:39.495Z,1006.42
2019-03-18T07:33:39.543Z,1006.30
2019-03-18T07:34:39.519Z,1006.33
2019-03-18T07:35:39.502Z,1006.38
2019-03-18T07:36:39.518Z,1006.32
2019-03-18T07:37:39.437Z,1006.32
2019-03-18T07:38:39.430Z,1006.32
2019-03-18T07:39:39.435Z,1006.26
2019-03-18T07:40:39.429Z,1006.31
2019-03-18T07:41:39.437Z,1006.32
2019-03-18T07:42:39.744Z,1006.24
2019-03-18T07:43:39.470Z,1006.23
2019-03-18T07:44:39.480Z,1006.28
2019-03-18T07:45:39.383Z,1006.21
2019-03-18T07:46:39.378Z,1006.35
2019-03-18T07:47:48.504Z,1006.36
2019-03-18T07:48:54.026Z,1006.34
2019-03-18T07:49:47.243Z,1006.38
2019-03-18T07:51:56.631Z,1006.48
2019-03-18T07:53:09.319Z,1006.36
2019-03-18T07:54:04.112Z,1006.43
2019-03-18T07:54:55.758Z,1006.44
2019-03-18T07:55:55.668Z,1006.54
2019-03-18T07:58:06.103Z,1006.51
2019-03-18T07:59:06.135Z,1006.51
2019-03-18T08:00:05.911Z,1006.55
2019-03-18T08:01:17.151Z,1006.58
2019-03-18T08:02:17.267Z,1006.56
2019-03-18T08:03:05.924Z,1006.50
2019-03-18T08:04:06.169Z,1006.64
2019-03-18T08:05:07.992Z,1006.64
2019-03-18T08:06:05.967Z,1006.57
2019-03-18T08:07:06.790Z,1006.48
2019-03-18T08:08:05.830Z,1006.55
2019-03-18T08:09:05.838Z,1006.50
2019-03-18T08:10:05.848Z,1006.45
2019-03-18T08:11:05.799Z,1006.44
2019-03-18T08:12:05.772Z,1006.49
2019-03-18T08:13:05.768Z,1006.52
2019-03-18T08:14:05.790Z,1006.51
2019-03-18T08:15:07.458Z,1006.45
2019-03-18T08:16:05.808Z,1006.56
2019-03-18T08:17:05.816Z,1006.55
2019-03-18T08:18:05.732Z,1006.58
2019-03-18T08:19:05.710Z,1006.52
2019-03-18T08:20:05.703Z,1006.62
2019-03-18T08:21:05.720Z,1006.66
2019-03-18T08:22:05.729Z,1006.66
2019-03-18T08:23:05.662Z,1006.69
2019-03-18T08:24:05.670Z,1006.61
2019-03-18T08:25:05.651Z,1006.78
2019-03-18T08:26:05.672Z,1006.65
2019-03-18T08:27:06.611Z,1006.65
2019-03-18T08:28:05.733Z,1006.69
2019-03-18T08:29:05.609Z,1006.68
2019-03-18T08:30:05.632Z,1006.69
2019-03-18T08:31:05.583Z,1006.76
2019-03-18T08:32:05.594Z,1006.73
2019-03-18T08:33:05.730Z,1006.73
2019-03-18T08:34:07.595Z,1006.70
2019-03-18T08:35:05.559Z,1006.70
2019-03-18T08:36:05.547Z,1006.75
2019-03-18T08:37:05.594Z,1006.76
2019-03-18T08:38:05.600Z,1006.73
2019-03-18T08:39:05.487Z,1006.85
2019-03-18T08:40:05.537Z,1006.87
2019-03-18T08:41:05.491Z,1006.74
2019-03-18T08:42:05.545Z,1006.75
2019-03-18T08:43:05.463Z,1006.81
2019-03-18T08:44:05.492Z,1006.86
2019-03-18T08:45:05.508Z,1006.77
2019-03-18T08:46:05.450Z,1006.77
2019-03-18T08:47:05.431Z,1006.88
2019-03-18T08:48:05.510Z,1006.90
2019-03-18T08:49:05.577Z,1006.83
2019-03-18T08:50:05.365Z,1006.87
2019-03-18T08:51:05.401Z,1006.92
2019-03-18T08:52:05.362Z,1006.96
2019-03-18T08:53:05.323Z,1006.89
2019-03-18T08:54:05.321Z,1006.99
2019-03-18T08:55:05.305Z,1007.03
2019-03-18T08:56:05.358Z,1007.06
2019-03-18T08:57:05.262Z,1007.06
2019-03-18T08:58:05.272Z,1007.10
2019-03-18T08:59:05.267Z,1007.09
2019-03-18T09:00:05.505Z,1007.12
2019-03-18T09:01:05.303Z,1007.06
2019-03-18T09:02:05.325Z,1007.02
2019-03-18T09:03:05.300Z,1007.00
2019-03-18T09:04:05.229Z,1007.10
2019-03-18T09:05:05.225Z,1007.13
2019-03-18T09:06:05.249Z,1007.06
2019-03-18T09:07:05.158Z,1007.08
2019-03-18T09:08:05.196Z,1007.13
2019-03-18T09:09:05.268Z,1007.07
2019-03-18T09:10:05.178Z,1007.13
2019-03-18T09:11:05.105Z,1007.19
2019-03-18T09:12:05.099Z,1007.16
2019-03-18T09:13:05.163Z,1007.14
2019-03-18T09:14:05.090Z,1007.19
2019-03-18T09:15:05.070Z,1007.19
2019-03-18T09:16:05.074Z,1007.13
2019-03-18T09:17:05.089Z,1007.19
2019-03-18T09:18:05.572Z,1007.23
2019-03-18T09:19:09.111Z,1007.02
2019-03-18T09:20:05.032Z,1007.21
2019-03-18T09:21:05.014Z,1007.20
2019-03-18T09:22:05.065Z,1007.14
2019-03-18T09:23:04.971Z,1007.25
2019-03-18T09:24:05.124Z,1007.17
2019-03-18T09:25:04.954Z,1007.09
2019-03-18T09:26:04.971Z,1007.09
2019-03-18T09:27:04.939Z,1007.15
2019-03-18T09:28:04.946Z,1007.15
2019-03-18T09:29:04.895Z,1007.30
2019-03-18T09:30:04.905Z,1007.16
2019-03-18T09:31:04.898Z,1007.09
2019-03-18T09:32:04.920Z,1007.14
2019-03-18T09:33:04.853Z,1007.01
2019-03-18T09:34:04.892Z,1007.23
2019-03-18T09:35:04.828Z,1007.12
2019-03-18T09:36:04.813Z,1007.12
2019-03-18T09:37:04.824Z,1007.12
2019-03-18T09:38:04.786Z,1007.16
2019-03-18T09:39:04.887Z,1007.24
2019-03-18T09:40:04.821Z,1007.07
2019-03-18T09:41:04.752Z,1007.18
2019-03-18T09:42:04.743Z,1007.19
2019-03-18T09:43:04.738Z,1007.04
2019-03-18T09:44:04.725Z,1007.19
2019-03-18T09:45:04.815Z,1007.30
2019-03-18T09:46:05.085Z,1007.19
2019-03-18T09:47:04.827Z,1007.26
2019-03-18T09:48:04.713Z,1007.20
2019-03-18T09:49:04.774Z,1007.30
2019-03-18T09:50:04.691Z,1007.28
2019-03-18T09:51:04.646Z,1007.29
2019-03-18T09:52:04.827Z,1007.31
2019-03-18T09:53:04.662Z,1007.42
2019-03-18T09:54:04.745Z,1007.46
2019-03-18T09:55:04.599Z,1007.37
2019-03-18T09:56:04.593Z,1007.24
2019-03-18T09:57:04.637Z,1007.37
2019-03-18T09:58:04.686Z,1007.39
2019-03-18T09:59:04.598Z,1007.41
2019-03-18T10:00:04.587Z,1007.34
2019-03-18T10:01:04.585Z,1007.50
2019-03-18T10:02:04.948Z,1007.43
2019-03-18T10:03:05.469Z,1007.40
2019-03-18T10:04:05.238Z,1007.45
2019-03-18T10:05:04.495Z,1007.49
2019-03-18T10:06:04.468Z,1007.41
2019-03-18T10:07:04.496Z,1007.61
2019-03-18T10:08:04.454Z,1007.41
2019-03-18T10:09:04.443Z,1007.54
2019-03-18T10:10:04.446Z,1007.51
2019-03-18T10:11:04.506Z,1007.58
2019-03-18T10:12:04.405Z,1007.67
2019-03-18T10:13:04.465Z,1007.58
2019-03-18T10:14:04.455Z,1007.67
2019-03-18T10:15:04.496Z,1007.59
2019-03-18T10:16:05.060Z,1007.58
2019-03-18T10:17:09.414Z,1007.59
2019-03-18T10:18:05.466Z,1007.46
2019-03-18T10:19:04.332Z,1007.59
2019-03-18T10:20:08.121Z,1007.56
2019-03-18T10:21:04.439Z,1007.45
2019-03-18T10:22:04.313Z,1007.64
2019-03-18T10:23:04.325Z,1007.77
2019-03-18T10:24:04.326Z,1007.72
2019-03-18T10:25:04.578Z,1007.84
2019-03-18T10:26:04.273Z,1007.69
2019-03-18T10:27:04.291Z,1007.79
2019-03-18T10:28:05.483Z,1007.77
2019-03-18T10:29:04.864Z,1007.77
2019-03-18T10:30:04.270Z,1007.75
2019-03-18T10:31:04.268Z,1007.74
2019-03-18T10:32:04.280Z,1007.70
2019-03-18T10:33:04.281Z,1007.72
2019-03-18T10:34:04.190Z,1007.74
2019-03-18T10:35:04.191Z,1007.85
2019-03-18T10:36:04.189Z,1007.78
2019-03-18T10:37:05.119Z,1007.80
2019-03-18T10:38:04.209Z,1007.76
2019-03-18T10:39:04.118Z,1007.75
2019-03-18T10:40:04.131Z,1007.78
2019-03-18T10:41:04.070Z,1007.79
2019-03-18T10:42:04.132Z,1007.74
2019-03-18T10:43:04.073Z,1007.82
2019-03-18T10:44:04.046Z,1007.82
2019-03-18T10:45:04.062Z,1007.77
2019-03-18T10:46:04.077Z,1007.83
2019-03-18T10:47:04.020Z,1007.84
2019-03-18T10:48:04.013Z,1007.81
2019-03-18T10:49:03.974Z,1007.84
2019-03-18T10:50:03.985Z,1007.81
2019-03-18T10:51:03.995Z,1007.95
2019-03-18T10:52:03.980Z,1007.92
2019-03-18T10:53:03.986Z,1007.95
2019-03-18T10:54:04.017Z,1007.92
2019-03-18T10:55:03.959Z,1007.87
2019-03-18T10:56:08.123Z,1007.81
2019-03-18T10:57:03.922Z,1007.86
2019-03-18T10:58:03.895Z,1008.04
2019-03-18T10:59:03.879Z,1007.96
2019-03-18T11:00:03.950Z,1007.99
2019-03-18T11:01:03.856Z,1008.04
2019-03-18T11:02:03.854Z,1008.03
2019-03-18T11:03:03.813Z,1007.97
2019-03-18T11:04:03.810Z,1008.17
2019-03-18T11:05:03.821Z,1008.19
2019-03-18T11:06:03.835Z,1008.24
2019-03-18T11:07:03.783Z,1008.27
2019-03-18T11:08:03.758Z,1008.27
2019-03-18T11:09:03.777Z,1008.31
2019-03-18T11:10:03.786Z,1008.40
2019-03-18T11:11:03.756Z,1008.43
2019-03-18T11:12:03.727Z,1008.35
2019-03-18T11:13:03.719Z,1008.33
2019-03-18T11:14:03.745Z,1008.33
2019-03-18T11:15:03.702Z,1008.38
2019-03-18T11:16:04.868Z,1008.40
2019-03-18T11:17:04.638Z,1008.34
2019-03-18T11:18:04.682Z,1008.42
2019-03-18T11:19:03.686Z,1008.30
2019-03-18T11:20:03.667Z,1008.27
2019-03-18T11:21:03.669Z,1008.26
2019-03-18T11:22:03.621Z,1008.23
2019-03-18T11:23:03.626Z,1008.28
2019-03-18T11:24:03.599Z,1008.28
2019-03-18T11:25:03.606Z,1008.26
2019-03-18T11:26:03.551Z,1008.17
2019-03-18T11:27:03.610Z,1008.26
2019-03-18T11:28:03.527Z,1008.18
2019-03-18T11:29:05.744Z,1008.29
2019-03-18T11:30:03.548Z,1008.22
2019-03-18T11:31:03.603Z,1008.25
2019-03-18T11:32:03.564Z,1008.25
2019-03-18T11:33:03.552Z,1008.25
2019-03-18T11:34:03.503Z,1008.22
2019-03-18T11:35:03.469Z,1008.23
2019-03-18T11:36:03.471Z,1008.28
2019-03-18T11:37:03.480Z,1008.30
2019-03-18T11:38:03.410Z,1008.35
2019-03-18T11:39:03.518Z,1008.22
2019-03-18T11:40:04.051Z,1008.26
2019-03-18T11:41:06.415Z,1008.20
2019-03-18T11:42:11.803Z,1008.22
2019-03-18T11:43:03.744Z,1008.19
2019-03-18T11:44:03.372Z,1008.20
2019-03-18T11:45:03.351Z,1008.19
2019-03-18T11:46:03.345Z,1008.27
2019-03-18T11:47:03.323Z,1008.26
2019-03-18T11:48:03.297Z,1008.18
2019-03-18T11:49:03.375Z,1008.22
2019-03-18T11:50:10.806Z,1008.23
2019-03-18T11:51:04.303Z,1008.18
2019-03-18T11:52:03.283Z,1008.14
2019-03-18T11:53:13.769Z,1008.23
2019-03-18T11:54:04.239Z,1008.23
2019-03-18T11:55:03.235Z,1008.16
2019-03-18T11:56:03.271Z,1008.10
2019-03-18T11:57:03.228Z,1008.18
2019-03-18T11:58:03.262Z,1008.04
2019-03-18T11:59:03.236Z,1008.03
2019-03-18T12:00:03.177Z,1008.05
2019-03-18T12:01:03.192Z,1008.06
2019-03-18T12:02:03.148Z,1008.00
2019-03-18T12:03:03.170Z,1008.04
2019-03-18T12:04:03.172Z,1008.04
2019-03-18T12:05:03.111Z,1008.02
2019-03-18T12:06:03.147Z,1008.02
2019-03-18T12:07:03.091Z,1008.04
2019-03-18T12:08:03.089Z,1008.10
2019-03-18T12:09:03.073Z,1008.14
2019-03-18T12:10:03.109Z,1008.02
2019-03-18T12:11:05.563Z,1008.10
2019-03-18T12:12:05.075Z,1008.05
2019-03-18T12:13:08.418Z,1008.02
2019-03-18T12:14:03.042Z,1008.01
2019-03-18T12:15:03.057Z,1007.96